sensor_id;sensor_type;location;lat;lon;timestamp;pressure;altitude;pressure_sealevel;temperature;humidity
42647;BME280;31319;53.678;-6.254;2023-02-18T00:00:17;101375.63;;;18.27;100.00
42647;BME280;31319;53.678;-6.254;2023-02-18T00:02:44;101371.72;;;18.16;100.00
42647;BME280;31319;53.678;-6.254;2023-02-18T00:05:11;101370.13;;;18.15;100.00
42647;BME280;31319;53.678;-6.254;2023-02-18T00:07:39;101365.03;;;18.17;100.00
42647;BME280;31319;53.678;-6.254;2023-02-18T00:10:07;101371.28;;;18.02;100.00
42647;BME280;31319;53.678;-6.254;2023-02-18T00:12:33;101365.31;;;18.00;100.00
42647;BME280;31319;53.678;-6.254;2023-02-18T00:14:59;101338.81;;;17.99;100.00
42647;BME280;31319;53.678;-6.254;2023-02-18T00:17:24;101353.09;;;18.01;100.00
42647;BME280;31319;53.678;-6.254;2023-02-18T00:19:50;101355.28;;;17.95;100.00
42647;BME280;31319;53.678;-6.254;2023-02-18T00:22:16;101357.25;;;17.95;100.00
42647;BME280;31319;53.678;-6.254;2023-02-18T00:24:42;101349.06;;;17.98;100.00
42647;BME280;31319;53.678;-6.254;2023-02-18T00:27:08;101366.13;;;17.88;100.00
42647;BME280;31319;53.678;-6.254;2023-02-18T00:29:34;101357.59;;;17.93;100.00
42647;BME280;31319;53.678;-6.254;2023-02-18T00:31:59;101352.88;;;17.94;100.00
42647;BME280;31319;53.678;-6.254;2023-02-18T00:34:25;101346.75;;;18.00;100.00
42647;BME280;31319;53.678;-6.254;2023-02-18T00:36:51;101347.13;;;17.87;100.00
42647;BME280;31319;53.678;-6.254;2023-02-18T00:39:17;101342.31;;;17.84;100.00
42647;BME280;31319;53.678;-6.254;2023-02-18T00:41:43;101348.22;;;18.22;100.00
42647;BME280;31319;53.678;-6.254;2023-02-18T00:44:10;101354.78;;;18.18;100.00
42647;BME280;31319;53.678;-6.254;2023-02-18T00:46:36;101351.94;;;17.90;100.00
42647;BME280;31319;53.678;-6.254;2023-02-18T00:49:03;101352.59;;;18.11;100.00
42647;BME280;31319;53.678;-6.254;2023-02-18T00:51:29;101324.94;;;18.11;100.00
42647;BME280;31319;53.678;-6.254;2023-02-18T00:53:55;101346.13;;;18.19;100.00
42647;BME280;31319;53.678;-6.254;2023-02-18T00:56:21;101344.13;;;17.80;100.00
42647;BME280;31319;53.678;-6.254;2023-02-18T00:58:47;101335.44;;;18.06;100.00
42647;BME280;31319;53.678;-6.254;2023-02-18T01:01:13;101339.16;;;17.97;100.00
42647;BME280;31319;53.678;-6.254;2023-02-18T01:03:39;101352.31;;;17.88;100.00
42647;BME280;31319;53.678;-6.254;2023-02-18T01:06:06;101352.97;;;17.97;100.00
42647;BME280;31319;53.678;-6.254;2023-02-18T01:08:33;101347.22;;;17.90;100.00
42647;BME280;31319;53.678;-6.254;2023-02-18T01:10:59;101318.19;;;17.96;100.00
42647;BME280;31319;53.678;-6.254;2023-02-18T01:13:26;101335.84;;;17.80;100.00
42647;BME280;31319;53.678;-6.254;2023-02-18T01:15:52;101342.13;;;18.05;100.00
42647;BME280;31319;53.678;-6.254;2023-02-18T01:18:18;101323.38;;;17.98;100.00
42647;BME280;31319;53.678;-6.254;2023-02-18T01:20:44;101327.06;;;18.02;100.00
42647;BME280;31319;53.678;-6.254;2023-02-18T01:23:11;101326.88;;;17.70;100.00
42647;BME280;31319;53.678;-6.254;2023-02-18T01:25:37;101347.72;;;17.80;100.00
42647;BME280;31319;53.678;-6.254;2023-02-18T01:28:05;101317.16;;;17.89;100.00
42647;BME280;31319;53.678;-6.254;2023-02-18T01:30:31;101313.72;;;17.80;100.00
42647;BME280;31319;53.678;-6.254;2023-02-18T01:32:57;101327.91;;;17.78;100.00
42647;BME280;31319;53.678;-6.254;2023-02-18T01:35:23;101318.56;;;17.83;100.00
42647;BME280;31319;53.678;-6.254;2023-02-18T01:37:50;101328.72;;;17.79;100.00
42647;BME280;31319;53.678;-6.254;2023-02-18T01:40:20;101325.47;;;17.28;100.00
42647;BME280;31319;53.678;-6.254;2023-02-18T01:42:45;101322.84;;;17.31;100.00
42647;BME280;31319;53.678;-6.254;2023-02-18T01:48:16;101334.47;;;17.73;100.00
42647;BME280;31319;53.678;-6.254;2023-02-18T01:50:46;101338.59;;;17.43;100.00
42647;BME280;31319;53.678;-6.254;2023-02-18T01:53:15;101327.31;;;17.36;100.00
42647;BME280;31319;53.678;-6.254;2023-02-18T01:55:43;101329.75;;;17.74;100.00
42647;BME280;31319;53.678;-6.254;2023-02-18T01:58:10;101327.66;;;17.46;100.00
42647;BME280;31319;53.678;-6.254;2023-02-18T02:00:37;101325.59;;;17.56;100.00
42647;BME280;31319;53.678;-6.254;2023-02-18T02:03:03;101316.16;;;17.81;100.00
42647;BME280;31319;53.678;-6.254;2023-02-18T02:05:31;101321.81;;;17.72;100.00
42647;BME280;31319;53.678;-6.254;2023-02-18T02:07:58;101324.19;;;17.37;100.00
42647;BME280;31319;53.678;-6.254;2023-02-18T02:10:35;101339.41;;;17.56;100.00
42647;BME280;31319;53.678;-6.254;2023-02-18T02:13:20;101331.22;;;17.59;100.00
42647;BME280;31319;53.678;-6.254;2023-02-18T02:16:09;101339.50;;;17.59;100.00
42647;BME280;31319;53.678;-6.254;2023-02-18T02:42:19;101349.16;;;17.53;100.00
42647;BME280;31319;53.678;-6.254;2023-02-18T02:44:56;101353.00;;;17.61;100.00
42647;BME280;31319;53.678;-6.254;2023-02-18T02:47:31;101349.53;;;17.64;100.00
42647;BME280;31319;53.678;-6.254;2023-02-18T02:50:25;101352.88;;;17.69;100.00
42647;BME280;31319;53.678;-6.254;2023-02-18T02:52:58;101351.75;;;17.70;100.00
42647;BME280;31319;53.678;-6.254;2023-02-18T02:55:24;101342.03;;;17.52;100.00
42647;BME280;31319;53.678;-6.254;2023-02-18T02:57:52;101363.47;;;17.55;100.00
42647;BME280;31319;53.678;-6.254;2023-02-18T03:00:30;101363.94;;;17.69;100.00
42647;BME280;31319;53.678;-6.254;2023-02-18T03:03:06;101354.50;;;17.46;100.00
42647;BME280;31319;53.678;-6.254;2023-02-18T03:06:09;101365.16;;;17.35;100.00
42647;BME280;31319;53.678;-6.254;2023-02-18T03:11:24;101372.75;;;17.26;100.00
42647;BME280;31319;53.678;-6.254;2023-02-18T03:20:02;101396.50;;;16.94;100.00
42647;BME280;31319;53.678;-6.254;2023-02-18T03:22:34;101400.81;;;17.16;100.00
42647;BME280;31319;53.678;-6.254;2023-02-18T03:25:03;101397.41;;;17.31;100.00
42647;BME280;31319;53.678;-6.254;2023-02-18T03:27:43;101404.66;;;17.60;100.00
42647;BME280;31319;53.678;-6.254;2023-02-18T03:30:40;101403.53;;;17.61;100.00
42647;BME280;31319;53.678;-6.254;2023-02-18T03:33:04;101387.97;;;17.32;100.00
42647;BME280;31319;53.678;-6.254;2023-02-18T03:35:30;101392.34;;;17.45;100.00
42647;BME280;31319;53.678;-6.254;2023-02-18T03:38:00;101394.25;;;17.20;100.00
42647;BME280;31319;53.678;-6.254;2023-02-18T03:40:28;101394.53;;;17.52;100.00
42647;BME280;31319;53.678;-6.254;2023-02-18T03:42:56;101397.53;;;17.47;100.00
42647;BME280;31319;53.678;-6.254;2023-02-18T03:45:23;101397.06;;;17.45;100.00
42647;BME280;31319;53.678;-6.254;2023-02-18T03:47:49;101391.09;;;17.55;100.00
42647;BME280;31319;53.678;-6.254;2023-02-18T03:50:15;101380.69;;;17.28;100.00
42647;BME280;31319;53.678;-6.254;2023-02-18T03:52:41;101383.50;;;17.40;100.00
42647;BME280;31319;53.678;-6.254;2023-02-18T03:55:06;101382.78;;;17.31;100.00
42647;BME280;31319;53.678;-6.254;2023-02-18T03:57:33;101375.88;;;17.37;100.00
42647;BME280;31319;53.678;-6.254;2023-02-18T03:59:59;101364.06;;;17.61;100.00
42647;BME280;31319;53.678;-6.254;2023-02-18T04:02:24;101365.59;;;17.01;100.00
42647;BME280;31319;53.678;-6.254;2023-02-18T04:04:50;101379.59;;;16.96;100.00
42647;BME280;31319;53.678;-6.254;2023-02-18T04:07:16;101379.28;;;17.09;100.00
42647;BME280;31319;53.678;-6.254;2023-02-18T04:09:41;101382.50;;;17.11;100.00
42647;BME280;31319;53.678;-6.254;2023-02-18T04:12:07;101373.66;;;16.73;100.00
42647;BME280;31319;53.678;-6.254;2023-02-18T04:14:33;101383.81;;;16.81;100.00
42647;BME280;31319;53.678;-6.254;2023-02-18T04:16:58;101385.47;;;16.94;100.00
42647;BME280;31319;53.678;-6.254;2023-02-18T04:19:25;101373.38;;;16.99;100.00
42647;BME280;31319;53.678;-6.254;2023-02-18T04:21:51;101375.22;;;16.95;100.00
42647;BME280;31319;53.678;-6.254;2023-02-18T04:24:17;101378.97;;;16.78;100.00
42647;BME280;31319;53.678;-6.254;2023-02-18T04:26:43;101375.78;;;17.00;100.00
42647;BME280;31319;53.678;-6.254;2023-02-18T04:29:08;101375.34;;;16.98;100.00
42647;BME280;31319;53.678;-6.254;2023-02-18T04:31:34;101377.00;;;16.57;100.00
42647;BME280;31319;53.678;-6.254;2023-02-18T04:34:00;101385.47;;;16.94;100.00
42647;BME280;31319;53.678;-6.254;2023-02-18T04:36:25;101379.50;;;16.71;100.00
42647;BME280;31319;53.678;-6.254;2023-02-18T04:38:51;101403.84;;;16.90;100.00
42647;BME280;31319;53.678;-6.254;2023-02-18T04:41:17;101394.63;;;16.86;100.00
42647;BME280;31319;53.678;-6.254;2023-02-18T04:43:42;101403.03;;;16.89;100.00
42647;BME280;31319;53.678;-6.254;2023-02-18T04:46:08;101403.31;;;16.76;100.00
42647;BME280;31319;53.678;-6.254;2023-02-18T04:48:34;101404.72;;;17.15;100.00
42647;BME280;31319;53.678;-6.254;2023-02-18T04:51:00;101410.41;;;16.98;100.00
42647;BME280;31319;53.678;-6.254;2023-02-18T04:53:25;101408.03;;;16.75;100.00
42647;BME280;31319;53.678;-6.254;2023-02-18T04:55:52;101391.53;;;16.67;100.00
42647;BME280;31319;53.678;-6.254;2023-02-18T04:58:19;101418.31;;;16.87;100.00
42647;BME280;31319;53.678;-6.254;2023-02-18T05:00:45;101411.31;;;16.69;100.00
42647;BME280;31319;53.678;-6.254;2023-02-18T05:03:12;101391.16;;;16.35;100.00
42647;BME280;31319;53.678;-6.254;2023-02-18T05:05:38;101405.44;;;16.91;100.00
42647;BME280;31319;53.678;-6.254;2023-02-18T05:08:06;101398.53;;;16.64;100.00
42647;BME280;31319;53.678;-6.254;2023-02-18T05:10:33;101409.09;;;16.83;100.00
42647;BME280;31319;53.678;-6.254;2023-02-18T05:12:59;101392.69;;;16.65;100.00
42647;BME280;31319;53.678;-6.254;2023-02-18T05:15:24;101394.97;;;16.63;100.00
42647;BME280;31319;53.678;-6.254;2023-02-18T05:17:51;101400.78;;;16.71;100.00
42647;BME280;31319;53.678;-6.254;2023-02-18T05:20:17;101403.81;;;16.78;100.00
42647;BME280;31319;53.678;-6.254;2023-02-18T05:22:42;101404.88;;;16.44;100.00
42647;BME280;31319;53.678;-6.254;2023-02-18T05:25:08;101399.34;;;16.44;100.00
42647;BME280;31319;53.678;-6.254;2023-02-18T05:27:34;101415.16;;;16.76;100.00
42647;BME280;31319;53.678;-6.254;2023-02-18T05:29:59;101408.50;;;16.77;100.00
42647;BME280;31319;53.678;-6.254;2023-02-18T05:32:25;101415.03;;;16.73;100.00
42647;BME280;31319;53.678;-6.254;2023-02-18T05:34:51;101408.72;;;16.72;100.00
42647;BME280;31319;53.678;-6.254;2023-02-18T05:37:16;101411.00;;;16.49;100.00
42647;BME280;31319;53.678;-6.254;2023-02-18T05:39:43;101408.00;;;16.54;100.00
42647;BME280;31319;53.678;-6.254;2023-02-18T05:42:09;101400.41;;;16.51;100.00
42647;BME280;31319;53.678;-6.254;2023-02-18T05:44:35;101408.28;;;16.61;100.00
42647;BME280;31319;53.678;-6.254;2023-02-18T05:47:03;101402.38;;;16.51;100.00
42647;BME280;31319;53.678;-6.254;2023-02-18T05:49:30;101413.13;;;16.44;100.00
42647;BME280;31319;53.678;-6.254;2023-02-18T05:51:57;101398.63;;;16.55;100.00
42647;BME280;31319;53.678;-6.254;2023-02-18T05:54:23;101400.69;;;16.58;100.00
42647;BME280;31319;53.678;-6.254;2023-02-18T05:56:49;101408.91;;;16.88;100.00
42647;BME280;31319;53.678;-6.254;2023-02-18T05:59:15;101396.88;;;16.72;100.00
42647;BME280;31319;53.678;-6.254;2023-02-18T06:01:40;101401.84;;;16.57;100.00
42647;BME280;31319;53.678;-6.254;2023-02-18T06:04:06;101401.06;;;16.78;100.00
42647;BME280;31319;53.678;-6.254;2023-02-18T06:06:33;101411.94;;;16.74;100.00
42647;BME280;31319;53.678;-6.254;2023-02-18T06:08:58;101404.06;;;16.64;100.00
42647;BME280;31319;53.678;-6.254;2023-02-18T06:11:24;101401.63;;;16.62;100.00
42647;BME280;31319;53.678;-6.254;2023-02-18T06:13:50;101408.97;;;16.58;100.00
42647;BME280;31319;53.678;-6.254;2023-02-18T06:16:15;101410.38;;;16.64;100.00
42647;BME280;31319;53.678;-6.254;2023-02-18T06:18:41;101407.28;;;16.45;100.00
42647;BME280;31319;53.678;-6.254;2023-02-18T06:21:07;101408.25;;;16.70;100.00
42647;BME280;31319;53.678;-6.254;2023-02-18T06:23:32;101400.75;;;16.50;100.00
42647;BME280;31319;53.678;-6.254;2023-02-18T06:25:58;101410.84;;;16.67;100.00
42647;BME280;31319;53.678;-6.254;2023-02-18T06:28:23;101419.31;;;16.70;100.00
42647;BME280;31319;53.678;-6.254;2023-02-18T06:30:49;101419.88;;;16.76;100.00
42647;BME280;31319;53.678;-6.254;2023-02-18T06:33:15;101421.06;;;16.66;100.00
42647;BME280;31319;53.678;-6.254;2023-02-18T06:35:41;101421.94;;;16.58;100.00
42647;BME280;31319;53.678;-6.254;2023-02-18T06:38:06;101433.72;;;16.67;100.00
42647;BME280;31319;53.678;-6.254;2023-02-18T06:40:32;101428.09;;;16.63;100.00
42647;BME280;31319;53.678;-6.254;2023-02-18T06:42:58;101443.63;;;16.89;100.00
42647;BME280;31319;53.678;-6.254;2023-02-18T06:45:24;101431.31;;;16.65;100.00
42647;BME280;31319;53.678;-6.254;2023-02-18T06:47:49;101440.94;;;17.01;100.00
42647;BME280;31319;53.678;-6.254;2023-02-18T06:50:15;101442.44;;;16.78;100.00
42647;BME280;31319;53.678;-6.254;2023-02-18T06:52:41;101449.63;;;16.91;100.00
42647;BME280;31319;53.678;-6.254;2023-02-18T06:55:07;101439.25;;;16.88;100.00
42647;BME280;31319;53.678;-6.254;2023-02-18T06:57:36;101446.81;;;16.79;100.00
42647;BME280;31319;53.678;-6.254;2023-02-18T07:00:03;101446.03;;;16.90;100.00
42647;BME280;31319;53.678;-6.254;2023-02-18T07:02:29;101450.84;;;16.81;100.00
42647;BME280;31319;53.678;-6.254;2023-02-18T07:04:55;101458.75;;;17.04;100.00
42647;BME280;31319;53.678;-6.254;2023-02-18T07:07:21;101461.75;;;17.32;100.00
42647;BME280;31319;53.678;-6.254;2023-02-18T07:09:47;101464.81;;;16.97;100.00
42647;BME280;31319;53.678;-6.254;2023-02-18T07:12:12;101467.16;;;17.07;100.00
42647;BME280;31319;53.678;-6.254;2023-02-18T07:14:38;101467.97;;;17.41;100.00
42647;BME280;31319;53.678;-6.254;2023-02-18T07:17:03;101468.56;;;17.13;100.00
42647;BME280;31319;53.678;-6.254;2023-02-18T07:19:29;101469.88;;;17.16;100.00
42647;BME280;31319;53.678;-6.254;2023-02-18T07:21:55;101480.97;;;17.07;100.00
42647;BME280;31319;53.678;-6.254;2023-02-18T07:24:22;101486.44;;;16.95;100.00
42647;BME280;31319;53.678;-6.254;2023-02-18T07:26:48;101479.78;;;16.96;100.00
42647;BME280;31319;53.678;-6.254;2023-02-18T07:29:14;101487.78;;;16.89;100.00
42647;BME280;31319;53.678;-6.254;2023-02-18T07:31:40;101485.69;;;17.07;100.00
42647;BME280;31319;53.678;-6.254;2023-02-18T07:34:05;101498.69;;;17.06;100.00
42647;BME280;31319;53.678;-6.254;2023-02-18T07:36:31;101504.44;;;17.01;100.00
42647;BME280;31319;53.678;-6.254;2023-02-18T07:38:56;101492.41;;;17.18;100.00
42647;BME280;31319;53.678;-6.254;2023-02-18T07:41:22;101482.00;;;16.82;100.00
42647;BME280;31319;53.678;-6.254;2023-02-18T07:43:48;101487.59;;;16.73;100.00
42647;BME280;31319;53.678;-6.254;2023-02-18T07:46:14;101494.28;;;16.93;100.00
42647;BME280;31319;53.678;-6.254;2023-02-18T07:48:40;101494.03;;;16.98;100.00
42647;BME280;31319;53.678;-6.254;2023-02-18T07:51:07;101493.19;;;16.85;100.00
42647;BME280;31319;53.678;-6.254;2023-02-18T07:53:36;101509.00;;;16.76;100.00
42647;BME280;31319;53.678;-6.254;2023-02-18T07:56:02;101512.47;;;16.64;100.00
42647;BME280;31319;53.678;-6.254;2023-02-18T07:58:29;101525.91;;;16.96;100.00
42647;BME280;31319;53.678;-6.254;2023-02-18T08:00:56;101542.47;;;16.96;100.00
42647;BME280;31319;53.678;-6.254;2023-02-18T08:03:28;101539.78;;;17.41;100.00
42647;BME280;31319;53.678;-6.254;2023-02-18T08:05:55;101535.09;;;17.41;100.00
42647;BME280;31319;53.678;-6.254;2023-02-18T08:08:24;101530.94;;;17.14;100.00
42647;BME280;31319;53.678;-6.254;2023-02-18T08:10:51;101537.47;;;17.31;100.00
42647;BME280;31319;53.678;-6.254;2023-02-18T08:13:17;101541.41;;;17.42;100.00
42647;BME280;31319;53.678;-6.254;2023-02-18T08:15:43;101547.38;;;17.32;100.00
42647;BME280;31319;53.678;-6.254;2023-02-18T08:18:15;101543.41;;;17.54;100.00
42647;BME280;31319;53.678;-6.254;2023-02-18T08:20:41;101536.25;;;17.53;100.00
42647;BME280;31319;53.678;-6.254;2023-02-18T08:23:07;101548.53;;;17.43;100.00
42647;BME280;31319;53.678;-6.254;2023-02-18T08:25:32;101544.09;;;17.51;100.00
42647;BME280;31319;53.678;-6.254;2023-02-18T08:27:58;101538.66;;;17.21;100.00
42647;BME280;31319;53.678;-6.254;2023-02-18T08:30:25;101548.28;;;17.36;100.00
42647;BME280;31319;53.678;-6.254;2023-02-18T08:32:51;101541.28;;;17.38;100.00
42647;BME280;31319;53.678;-6.254;2023-02-18T08:35:17;101553.78;;;17.24;100.00
42647;BME280;31319;53.678;-6.254;2023-02-18T08:37:42;101571.69;;;17.38;100.00
42647;BME280;31319;53.678;-6.254;2023-02-18T08:40:09;101569.41;;;17.53;100.00
42647;BME280;31319;53.678;-6.254;2023-02-18T08:42:35;101584.38;;;17.52;100.00
42647;BME280;31319;53.678;-6.254;2023-02-18T08:45:00;101586.78;;;17.53;100.00
42647;BME280;31319;53.678;-6.254;2023-02-18T08:47:26;101590.31;;;17.62;100.00
42647;BME280;31319;53.678;-6.254;2023-02-18T08:49:52;101604.13;;;17.62;100.00
42647;BME280;31319;53.678;-6.254;2023-02-18T08:52:19;101602.59;;;17.32;100.00
42647;BME280;31319;53.678;-6.254;2023-02-18T08:54:44;101598.78;;;17.57;100.00
42647;BME280;31319;53.678;-6.254;2023-02-18T08:57:10;101604.78;;;17.59;100.00
42647;BME280;31319;53.678;-6.254;2023-02-18T08:59:36;101609.84;;;17.57;100.00
42647;BME280;31319;53.678;-6.254;2023-02-18T09:02:01;101608.78;;;17.70;100.00
42647;BME280;31319;53.678;-6.254;2023-02-18T09:04:27;101599.06;;;17.64;100.00
42647;BME280;31319;53.678;-6.254;2023-02-18T09:06:53;101611.31;;;17.75;100.00
42647;BME280;31319;53.678;-6.254;2023-02-18T09:09:18;101616.63;;;17.81;100.00
42647;BME280;31319;53.678;-6.254;2023-02-18T09:11:44;101608.44;;;17.72;100.00
42647;BME280;31319;53.678;-6.254;2023-02-18T09:14:11;101618.81;;;17.75;100.00
42647;BME280;31319;53.678;-6.254;2023-02-18T09:16:38;101621.88;;;17.94;100.00
42647;BME280;31319;53.678;-6.254;2023-02-18T09:19:05;101606.94;;;17.74;100.00
42647;BME280;31319;53.678;-6.254;2023-02-18T09:21:31;101629.63;;;18.01;100.00
42647;BME280;31319;53.678;-6.254;2023-02-18T09:23:57;101624.19;;;18.05;100.00
42647;BME280;31319;53.678;-6.254;2023-02-18T09:26:23;101625.72;;;18.14;100.00
42647;BME280;31319;53.678;-6.254;2023-02-18T09:28:52;101634.72;;;18.23;100.00
42647;BME280;31319;53.678;-6.254;2023-02-18T09:31:20;101629.97;;;18.12;100.00
42647;BME280;31319;53.678;-6.254;2023-02-18T09:33:50;101630.47;;;18.14;100.00
42647;BME280;31319;53.678;-6.254;2023-02-18T09:36:17;101629.09;;;18.32;100.00
42647;BME280;31319;53.678;-6.254;2023-02-18T09:38:43;101627.16;;;18.45;100.00
42647;BME280;31319;53.678;-6.254;2023-02-18T09:41:29;101626.53;;;18.27;100.00
42647;BME280;31319;53.678;-6.254;2023-02-18T09:44:01;101621.47;;;18.17;100.00
42647;BME280;31319;53.678;-6.254;2023-02-18T09:46:38;101633.13;;;18.22;100.00
42647;BME280;31319;53.678;-6.254;2023-02-18T09:49:14;101634.03;;;18.26;100.00
42647;BME280;31319;53.678;-6.254;2023-02-18T09:51:41;101644.78;;;18.40;100.00
42647;BME280;31319;53.678;-6.254;2023-02-18T09:54:15;101644.44;;;18.54;100.00
42647;BME280;31319;53.678;-6.254;2023-02-18T09:56:42;101652.78;;;18.78;100.00
42647;BME280;31319;53.678;-6.254;2023-02-18T09:59:13;101654.47;;;18.58;100.00
42647;BME280;31319;53.678;-6.254;2023-02-18T10:01:42;101652.44;;;18.68;100.00
42647;BME280;31319;53.678;-6.254;2023-02-18T10:06:52;101651.75;;;18.83;100.00
42647;BME280;31319;53.678;-6.254;2023-02-18T10:11:48;101664.44;;;18.72;100.00
42647;BME280;31319;53.678;-6.254;2023-02-18T10:14:15;101655.78;;;18.73;100.00
42647;BME280;31319;53.678;-6.254;2023-02-18T10:16:43;101653.31;;;18.47;100.00
42647;BME280;31319;53.678;-6.254;2023-02-18T10:19:20;101662.13;;;18.86;100.00
42647;BME280;31319;53.678;-6.254;2023-02-18T10:21:47;101657.19;;;18.67;100.00
42647;BME280;31319;53.678;-6.254;2023-02-18T10:26:54;101661.56;;;18.68;100.00
42647;BME280;31319;53.678;-6.254;2023-02-18T10:29:20;101659.94;;;18.67;100.00
42647;BME280;31319;53.678;-6.254;2023-02-18T10:35:33;101672.16;;;18.91;100.00
42647;BME280;31319;53.678;-6.254;2023-02-18T10:45:41;101656.09;;;18.47;100.00
42647;BME280;31319;53.678;-6.254;2023-02-18T10:48:23;101663.06;;;18.78;100.00
42647;BME280;31319;53.678;-6.254;2023-02-18T10:50:52;101659.81;;;19.00;100.00
42647;BME280;31319;53.678;-6.254;2023-02-18T10:53:37;101660.06;;;18.83;100.00
42647;BME280;31319;53.678;-6.254;2023-02-18T10:56:06;101657.63;;;18.94;100.00
42647;BME280;31319;53.678;-6.254;2023-02-18T10:58:36;101667.53;;;18.95;100.00
42647;BME280;31319;53.678;-6.254;2023-02-18T11:01:13;101649.75;;;18.96;100.00
42647;BME280;31319;53.678;-6.254;2023-02-18T11:03:44;101653.91;;;19.02;100.00
42647;BME280;31319;53.678;-6.254;2023-02-18T11:08:45;101664.94;;;19.26;100.00
42647;BME280;31319;53.678;-6.254;2023-02-18T11:11:33;101659.59;;;19.05;100.00
42647;BME280;31319;53.678;-6.254;2023-02-18T11:14:02;101663.03;;;19.15;100.00
42647;BME280;31319;53.678;-6.254;2023-02-18T11:16:58;101668.00;;;18.84;100.00
42647;BME280;31319;53.678;-6.254;2023-02-18T11:19:35;101641.44;;;19.20;100.00
42647;BME280;31319;53.678;-6.254;2023-02-18T11:22:24;101641.34;;;18.92;100.00
42647;BME280;31319;53.678;-6.254;2023-02-18T11:24:58;101645.88;;;18.84;100.00
42647;BME280;31319;53.678;-6.254;2023-02-18T11:27:38;101645.59;;;19.02;100.00
42647;BME280;31319;53.678;-6.254;2023-02-18T11:30:26;101653.94;;;18.90;100.00
42647;BME280;31319;53.678;-6.254;2023-02-18T11:33:02;101645.84;;;18.60;100.00
42647;BME280;31319;53.678;-6.254;2023-02-18T11:35:31;101645.06;;;18.84;100.00
42647;BME280;31319;53.678;-6.254;2023-02-18T11:37:59;101646.09;;;18.67;100.00
42647;BME280;31319;53.678;-6.254;2023-02-18T11:40:32;101643.31;;;18.92;100.00
42647;BME280;31319;53.678;-6.254;2023-02-18T11:43:10;101636.13;;;19.15;100.00
42647;BME280;31319;53.678;-6.254;2023-02-18T11:45:37;101637.97;;;19.11;100.00
42647;BME280;31319;53.678;-6.254;2023-02-18T11:48:23;101643.19;;;19.12;100.00
42647;BME280;31319;53.678;-6.254;2023-02-18T11:50:52;101631.84;;;19.18;100.00
42647;BME280;31319;53.678;-6.254;2023-02-18T11:55:54;101631.56;;;18.82;100.00
42647;BME280;31319;53.678;-6.254;2023-02-18T11:58:21;101637.34;;;18.77;100.00
42647;BME280;31319;53.678;-6.254;2023-02-18T12:00:48;101639.97;;;18.74;100.00
42647;BME280;31319;53.678;-6.254;2023-02-18T12:03:29;101638.59;;;18.92;100.00
42647;BME280;31319;53.678;-6.254;2023-02-18T12:05:57;101641.22;;;18.89;100.00
42647;BME280;31319;53.678;-6.254;2023-02-18T12:08:27;101655.09;;;18.76;100.00
42647;BME280;31319;53.678;-6.254;2023-02-18T12:11:20;101644.44;;;18.42;100.00
42647;BME280;31319;53.678;-6.254;2023-02-18T12:13:52;101648.25;;;18.62;100.00
42647;BME280;31319;53.678;-6.254;2023-02-18T12:27:03;101642.69;;;19.23;100.00
42647;BME280;31319;53.678;-6.254;2023-02-18T12:37:44;101651.06;;;19.79;100.00
42647;BME280;31319;53.678;-6.254;2023-02-18T12:48:34;101642.38;;;20.08;100.00
42647;BME280;31319;53.678;-6.254;2023-02-18T13:14:10;101593.41;;;19.16;100.00
42647;BME280;31319;53.678;-6.254;2023-02-18T13:16:38;101597.47;;;19.59;100.00
42647;BME280;31319;53.678;-6.254;2023-02-18T13:19:23;101609.31;;;19.31;100.00
42647;BME280;31319;53.678;-6.254;2023-02-18T13:21:52;101617.69;;;18.95;100.00
42647;BME280;31319;53.678;-6.254;2023-02-18T13:26:57;101600.41;;;19.26;100.00
42647;BME280;31319;53.678;-6.254;2023-02-18T13:29:29;101617.47;;;19.00;100.00
42647;BME280;31319;53.678;-6.254;2023-02-18T13:32:31;101596.00;;;18.48;100.00
42647;BME280;31319;53.678;-6.254;2023-02-18T13:38:10;101602.31;;;19.09;100.00
42647;BME280;31319;53.678;-6.254;2023-02-18T13:40:41;101597.94;;;18.96;100.00
42647;BME280;31319;53.678;-6.254;2023-02-18T13:43:19;101596.81;;;18.97;100.00
42647;BME280;31319;53.678;-6.254;2023-02-18T13:46:18;101599.47;;;18.94;100.00
42647;BME280;31319;53.678;-6.254;2023-02-18T13:51:38;101580.16;;;19.09;100.00
42647;BME280;31319;53.678;-6.254;2023-02-18T13:56:40;101560.41;;;19.11;100.00
42647;BME280;31319;53.678;-6.254;2023-02-18T13:59:37;101581.47;;;18.88;100.00
42647;BME280;31319;53.678;-6.254;2023-02-18T14:02:31;101579.91;;;18.74;100.00
42647;BME280;31319;53.678;-6.254;2023-02-18T14:05:18;101575.75;;;18.68;100.00
42647;BME280;31319;53.678;-6.254;2023-02-18T14:07:50;101576.88;;;18.43;100.00
42647;BME280;31319;53.678;-6.254;2023-02-18T14:25:51;101550.69;;;18.77;100.00
42647;BME280;31319;53.678;-6.254;2023-02-18T14:50:41;101523.78;;;19.58;100.00
42647;BME280;31319;53.678;-6.254;2023-02-18T14:53:14;101519.38;;;19.29;100.00
42647;BME280;31319;53.678;-6.254;2023-02-18T14:55:45;101537.84;;;19.53;100.00
42647;BME280;31319;53.678;-6.254;2023-02-18T14:58:35;101550.69;;;19.17;100.00
42647;BME280;31319;53.678;-6.254;2023-02-18T15:03:47;101540.38;;;19.02;100.00
42647;BME280;31319;53.678;-6.254;2023-02-18T15:08:52;101534.78;;;19.14;100.00
42647;BME280;31319;53.678;-6.254;2023-02-18T15:11:20;101532.75;;;18.99;100.00
42647;BME280;31319;53.678;-6.254;2023-02-18T15:13:48;101560.00;;;18.97;100.00
42647;BME280;31319;53.678;-6.254;2023-02-18T15:16:28;101544.94;;;18.70;100.00
42647;BME280;31319;53.678;-6.254;2023-02-18T15:18:57;101548.16;;;18.47;100.00
42647;BME280;31319;53.678;-6.254;2023-02-18T15:21:29;101545.00;;;18.98;100.00
42647;BME280;31319;53.678;-6.254;2023-02-18T15:24:06;101543.94;;;19.02;100.00